Time;durP1;ratioP1;P1;durP2;ratioP2;P2;SDS_P1;SDS_P2;PMS_P1;PMS_P2;Temp;Humidity;BMP_temperature;BMP_pressure;BME280_temperature;BME280_humidity;BME280_pressure;Samples;Min_cycle;Max_cycle;Signal;HPM_P1;HPM_P2
2022/07/26 00:01:28;;;;;;;2.00;1.30;;;27.00;60.70;;;;;;4952885;29;20454;-74
2022/07/26 00:03:54;;;;;;;2.50;1.50;;;27.00;60.70;;;;;;4936854;29;20459;-74
2022/07/26 00:06:25;;;;;;;2.00;1.60;;;27.00;60.80;;;;;;4936740;29;20836;-73
2022/07/26 00:08:54;;;;;;;2.17;1.30;;;27.00;60.80;;;;;;4952073;29;20207;-74
2022/07/26 00:11:24;;;;;;;3.10;1.40;;;27.00;60.80;;;;;;4953773;28;20471;-74
2022/07/26 00:13:53;;;;;;;2.17;1.60;;;26.90;60.80;;;;;;4921162;29;20431;-74
2022/07/26 00:16:20;;;;;;;1.50;1.17;;;26.90;60.90;;;;;;4952591;29;20412;-74
2022/07/26 00:18:46;;;;;;;2.63;1.60;;;26.90;61.00;;;;;;4936560;29;20538;-73
2022/07/26 00:21:17;;;;;;;2.17;1.60;;;26.90;61.00;;;;;;4951884;29;20495;-74
2022/07/26 00:23:45;;;;;;;2.00;1.20;;;26.90;61.10;;;;;;4953520;28;20963;-74
2022/07/26 00:26:11;;;;;;;2.40;1.60;;;26.90;61.10;;;;;;4952623;29;20978;-73
2022/07/26 00:28:38;;;;;;;1.87;1.17;;;26.90;61.10;;;;;;4952318;29;20446;-73
2022/07/26 00:31:07;;;;;;;2.23;1.20;;;26.80;61.20;;;;;;4953335;28;20470;-74
2022/07/26 00:33:34;;;;;;;1.87;1.50;;;26.80;61.20;;;;;;4951561;29;20445;-74
2022/07/26 00:36:02;;;;;;;2.23;1.50;;;26.80;61.30;;;;;;4952405;29;20817;-73
2022/07/26 00:38:28;;;;;;;2.83;1.60;;;26.80;61.30;;;;;;4952197;29;20894;-73
2022/07/26 00:40:59;;;;;;;2.13;1.50;;;26.80;61.40;;;;;;4951860;28;20573;-74
2022/07/26 00:43:25;;;;;;;1.70;1.40;;;26.80;61.40;;;;;;4952275;29;20545;-74
2022/07/26 00:45:53;;;;;;;3.43;1.97;;;26.70;61.30;;;;;;4967452;28;20909;-74
2022/07/26 00:48:19;;;;;;;4.37;1.60;;;26.70;61.40;;;;;;4952328;29;20427;-74
2022/07/26 00:50:51;;;;;;;2.17;1.63;;;26.70;61.40;;;;;;4964722;28;20456;-74
2022/07/26 00:53:19;;;;;;;2.97;1.47;;;26.70;61.50;;;;;;4941470;29;20512;-74
2022/07/26 00:55:46;;;;;;;5.03;1.63;;;26.70;61.40;;;;;;4953549;28;20433;-74
2022/07/26 00:58:15;;;;;;;6.97;1.70;;;26.70;61.60;;;;;;4953389;29;20516;-74
2022/07/26 01:00:43;;;;;;;2.50;1.73;;;26.70;61.50;;;;;;4936456;29;20473;-74
2022/07/26 01:03:10;;;;;;;2.60;1.90;;;26.60;61.50;;;;;;4952398;29;20918;-74
2022/07/26 01:05:41;;;;;;;1.93;1.50;;;26.60;61.60;;;;;;4952005;29;20619;-74
2022/07/26 01:08:06;;;;;;;2.17;1.73;;;26.60;61.60;;;;;;4936356;29;20416;-74
2022/07/26 01:10:33;;;;;;;2.40;1.43;;;26.60;61.70;;;;;;4920295;29;20461;-74
2022/07/26 01:13:03;;;;;;;3.83;1.70;;;26.60;61.70;;;;;;4952268;29;20454;-74
2022/07/26 01:15:29;;;;;;;3.73;1.70;;;26.60;61.70;;;;;;4951590;29;20433;-74
2022/07/26 01:17:55;;;;;;;2.00;1.40;;;26.60;61.80;;;;;;4951938;29;20471;-74
2022/07/26 01:20:21;;;;;;;3.03;1.73;;;26.60;61.90;;;;;;4948345;29;20461;-74
2022/07/26 01:22:47;;;;;;;2.27;1.63;;;26.50;61.80;;;;;;4934202;29;20447;-74
2022/07/26 01:25:13;;;;;;;2.20;1.60;;;26.50;61.80;;;;;;4936977;29;20482;-74
2022/07/26 01:27:39;;;;;;;2.87;1.80;;;26.50;61.90;;;;;;4952618;28;20411;-74
2022/07/26 01:30:09;;;;;;;1.40;1.30;;;26.50;62.00;;;;;;4951934;29;20490;-74
2022/07/26 01:32:35;;;;;;;2.23;1.47;;;26.50;62.10;;;;;;4952219;29;20430;-74
2022/07/26 01:35:02;;;;;;;1.70;1.50;;;26.40;62.00;;;;;;4965425;28;20975;-74
2022/07/26 01:37:28;;;;;;;2.17;1.60;;;26.40;62.00;;;;;;4964436;28;20431;-73
2022/07/26 01:39:54;;;;;;;2.37;1.83;;;26.40;62.00;;;;;;4935644;28;20980;-74
2022/07/26 01:42:22;;;;;;;2.53;1.47;;;26.40;62.10;;;;;;4951794;29;20427;-74
2022/07/26 01:44:48;;;;;;;2.27;1.70;;;26.40;62.20;;;;;;4954423;28;20419;-74
2022/07/26 01:47:17;;;;;;;3.07;1.80;;;26.40;62.20;;;;;;4939095;29;20438;-74
2022/07/26 01:49:43;;;;;;;1.63;1.47;;;26.40;62.20;;;;;;4970991;28;20513;-74
2022/07/26 01:52:13;;;;;;;2.80;1.50;;;26.30;62.20;;;;;;4924092;29;20972;-74
2022/07/26 01:54:44;;;;;;;2.23;1.67;;;26.30;62.30;;;;;;4955091;29;20458;-74
2022/07/26 01:57:10;;;;;;;2.77;1.70;;;26.30;62.30;;;;;;4954798;29;20932;-74
2022/07/26 01:59:38;;;;;;;2.20;1.40;;;26.30;62.30;;;;;;4955055;29;20441;-74
2022/07/26 02:02:04;;;;;;;4.00;1.40;;;26.30;62.30;;;;;;4939122;29;20446;-74
2022/07/26 02:05:00;;;;;;;3.40;1.50;;;26.30;62.40;;;;;;4940844;29;20444;-74
2022/07/26 02:07:38;;;;;;;4.83;1.57;;;26.20;62.40;;;;;;4970539;28;20453;-74
2022/07/26 02:10:08;;;;;;;3.20;1.30;;;26.20;62.40;;;;;;4939059;29;20456;-74
2022/07/26 02:12:36;;;;;;;4.73;1.73;;;26.20;62.50;;;;;;4956055;29;20909;-74
2022/07/26 02:15:05;;;;;;;3.87;2.10;;;26.20;62.50;;;;;;4951643;29;20783;-74
2022/07/26 02:17:33;;;;;;;3.90;2.00;;;26.20;62.60;;;;;;4936312;29;20423;-74
2022/07/26 02:20:09;;;;;;;2.23;1.67;;;26.20;62.60;;;;;;4937755;29;21181;-74
2022/07/26 02:22:35;;;;;;;2.40;1.60;;;26.20;62.70;;;;;;4970065;28;20477;-74
2022/07/26 02:25:06;;;;;;;3.20;1.70;;;26.10;62.60;;;;;;4966734;28;20484;-74
2022/07/26 02:28:03;;;;;;;4.27;1.70;;;26.10;62.70;;;;;;4940307;29;20597;-74
2022/07/26 02:30:31;;;;;;;3.93;1.57;;;26.10;62.80;;;;;;4939087;29;20466;-74
2022/07/26 02:32:59;;;;;;;2.67;1.50;;;26.10;62.90;;;;;;4954610;29;20438;-74
2022/07/26 02:35:30;;;;;;;1.70;1.23;;;26.10;63.00;;;;;;4955480;29;20442;-74
2022/07/26 02:38:07;;;;;;;3.80;1.50;;;26.00;62.90;;;;;;4938325;29;20930;-74
2022/07/26 02:40:34;;;;;;;2.30;1.60;;;26.10;63.10;;;;;;4938900;29;20490;-74
2022/07/26 02:43:03;;;;;;;1.80;1.40;;;26.00;63.00;;;;;;4954529;29;20467;-74
2022/07/26 02:45:29;;;;;;;4.20;1.67;;;26.00;63.00;;;;;;4960119;28;20477;-74
2022/07/26 02:47:55;;;;;;;4.80;1.40;;;26.00;63.10;;;;;;4953847;28;20451;-74
2022/07/26 02:50:26;;;;;;;2.90;1.53;;;26.00;63.20;;;;;;4955347;28;20443;-74
2022/07/26 02:52:55;;;;;;;2.90;1.33;;;26.00;63.20;;;;;;4970300;28;20458;-74
2022/07/26 02:55:23;;;;;;;4.23;1.90;;;25.90;63.20;;;;;;4937797;28;20434;-74
2022/07/26 02:57:53;;;;;;;3.73;1.60;;;25.90;63.30;;;;;;4937875;29;20411;-74
2022/07/26 03:00:26;;;;;;;4.37;1.90;;;25.90;63.30;;;;;;4950656;29;20890;-74
2022/07/26 03:02:52;;;;;;;3.23;1.40;;;25.90;63.40;;;;;;4923889;29;20465;-74
2022/07/26 03:05:21;;;;;;;2.17;1.37;;;25.90;63.40;;;;;;4955003;29;20423;-74
2022/07/26 03:07:52;;;;;;;4.40;2.07;;;25.90;63.40;;;;;;4954998;29;20416;-74
2022/07/26 03:10:18;;;;;;;3.40;1.77;;;25.80;63.40;;;;;;4954122;29;20462;-74
2022/07/26 03:12:47;;;;;;;3.57;1.87;;;25.80;63.50;;;;;;4937630;29;20447;-74
2022/07/26 03:15:13;;;;;;;2.37;1.20;;;25.80;63.60;;;;;;4950469;29;20530;-74
2022/07/26 03:17:39;;;;;;;2.60;1.67;;;25.80;63.70;;;;;;4936785;29;21099;-74
2022/07/26 03:20:08;;;;;;;2.87;1.37;;;25.80;63.80;;;;;;4938387;29;20980;-74
2022/07/26 03:22:38;;;;;;;2.53;1.80;;;25.80;63.90;;;;;;4954741;28;20478;-74
2022/07/26 03:25:05;;;;;;;1.53;1.40;;;25.80;63.90;;;;;;4934265;29;20515;-74
2022/07/26 03:27:36;;;;;;;3.17;1.67;;;25.70;63.90;;;;;;4920215;28;20432;-74
2022/07/26 03:30:05;;;;;;;4.63;1.77;;;25.70;64.00;;;;;;4937911;29;20470;-74
2022/07/26 03:32:34;;;;;;;2.33;1.43;;;25.70;64.00;;;;;;4953346;29;20423;-74
2022/07/26 03:35:03;;;;;;;2.40;1.30;;;25.70;64.00;;;;;;4937814;29;20470;-74
2022/07/26 03:37:30;;;;;;;3.10;1.70;;;25.70;64.10;;;;;;4937545;29;20494;-74
2022/07/26 03:40:00;;;;;;;3.40;1.90;;;25.70;64.20;;;;;;4952929;29;20443;-74
2022/07/26 03:42:26;;;;;;;3.60;1.40;;;25.60;64.20;;;;;;4937347;29;20438;-74
2022/07/26 03:44:55;;;;;;;5.27;2.07;;;25.60;64.20;;;;;;4954481;29;20426;-74
2022/07/26 03:47:21;;;;;;;3.33;1.47;;;25.60;64.20;;;;;;4953786;29;20195;-75
2022/07/26 03:49:51;;;;;;;2.30;1.53;;;25.60;64.20;;;;;;4954321;29;20423;-74
2022/07/26 03:52:19;;;;;;;2.83;1.87;;;25.60;64.20;;;;;;4953449;29;20415;-74
2022/07/26 03:54:47;;;;;;;3.97;1.80;;;25.60;64.30;;;;;;4936836;29;20948;-74
2022/07/26 03:57:16;;;;;;;2.80;1.70;;;25.60;64.40;;;;;;4954291;29;20195;-74
2022/07/26 03:59:42;;;;;;;1.37;1.17;;;25.60;64.40;;;;;;4952951;29;20513;-74
2022/07/26 04:02:08;;;;;;;2.27;1.50;;;25.60;64.40;;;;;;4953151;29;20453;-74
2022/07/26 04:04:34;;;;;;;3.17;1.73;;;25.60;64.40;;;;;;4952890;29;20462;-74
2022/07/26 04:07:04;;;;;;;5.40;1.90;;;25.60;64.50;;;;;;4952562;28;20230;-74
2022/07/26 04:09:30;;;;;;;3.27;2.10;;;25.50;65.30;;;;;;4954223;29;20415;-74
2022/07/26 04:12:01;;;;;;;3.60;2.10;;;25.60;64.60;;;;;;4952023;28;20463;-74
2022/07/26 04:14:27;;;;;;;6.53;2.10;;;25.50;64.70;;;;;;4951014;29;20419;-74
2022/07/26 04:16:53;;;;;;;4.53;1.80;;;25.50;64.70;;;;;;4953217;29;20939;-74
2022/07/26 04:19:21;;;;;;;2.87;1.57;;;25.50;64.70;;;;;;4953496;28;21019;-74
2022/07/26 04:21:47;;;;;;;3.80;2.10;;;25.50;64.70;;;;;;4953904;29;20427;-74
2022/07/26 04:24:13;;;;;;;3.67;1.97;;;25.50;64.80;;;;;;4933476;29;20467;-74
2022/07/26 04:26:39;;;;;;;4.07;1.67;;;25.50;64.90;;;;;;4934021;29;20301;-77
2022/07/26 04:29:08;;;;;;;18.60;2.77;;;25.50;64.90;;;;;;4943982;29;20430;-74
2022/07/26 04:31:34;;;;;;;2.20;1.40;;;25.40;65.60;;;;;;4968902;28;20971;-75
2022/07/26 04:34:02;;;;;;;3.73;1.83;;;25.40;65.00;;;;;;4958799;28;20426;-74
2022/07/26 04:36:33;;;;;;;4.33;1.83;;;25.40;65.00;;;;;;4936842;29;20470;-73
2022/07/26 04:39:01;;;;;;;3.23;1.60;;;25.40;65.10;;;;;;4917700;29;20436;-73
2022/07/26 04:41:27;;;;;;;2.27;1.80;;;25.40;65.30;;;;;;4933551;29;20439;-73
2022/07/26 04:43:53;;;;;;;2.87;1.50;;;25.40;65.20;;;;;;4949119;29;20470;-73
2022/07/26 04:46:19;;;;;;;3.37;1.77;;;25.40;65.20;;;;;;4936922;29;20933;-73
2022/07/26 04:48:45;;;;;;;4.07;2.00;;;25.40;65.40;;;;;;4932989;29;20426;-73
2022/07/26 04:51:11;;;;;;;2.30;1.80;;;25.40;65.60;;;;;;4917759;29;20458;-72
2022/07/26 04:53:37;;;;;;;3.20;2.10;;;25.40;65.70;;;;;;4943722;29;20426;-73
2022/07/26 04:56:05;;;;;;;3.43;1.87;;;25.40;65.80;;;;;;4952800;29;20242;-73
2022/07/26 04:58:31;;;;;;;5.23;1.70;;;25.30;65.70;;;;;;4949098;29;20771;-73
2022/07/26 05:01:00;;;;;;;3.50;2.07;;;25.30;65.90;;;;;;4934897;29;20505;-72
2022/07/26 05:03:26;;;;;;;3.57;1.90;;;25.30;65.90;;;;;;4953438;28;20490;-72
2022/07/26 05:05:52;;;;;;;3.70;2.40;;;25.30;66.10;;;;;;4949194;29;20502;-73
2022/07/26 05:08:21;;;;;;;3.47;1.77;;;25.30;66.10;;;;;;4933298;29;20558;-73
2022/07/26 05:10:47;;;;;;;2.00;1.80;;;25.30;66.10;;;;;;4944777;29;20443;-73
2022/07/26 05:13:17;;;;;;;4.63;2.17;;;25.30;66.20;;;;;;4936523;29;20972;-73
2022/07/26 05:15:45;;;;;;;3.17;1.90;;;25.30;66.30;;;;;;4948709;29;20443;-73
2022/07/26 05:18:14;;;;;;;3.47;2.00;;;25.30;66.50;;;;;;4933585;29;20495;-73
2022/07/26 05:20:40;;;;;;;4.07;2.10;;;25.30;66.50;;;;;;4955460;29;20474;-73
2022/07/26 05:23:08;;;;;;;4.23;2.03;;;25.20;66.50;;;;;;4955445;29;20513;-73
2022/07/26 05:25:35;;;;;;;3.03;1.80;;;25.20;66.50;;;;;;4946113;29;20798;-73
2022/07/26 05:28:01;;;;;;;2.80;1.90;;;25.20;66.50;;;;;;4957070;28;20407;-73
2022/07/26 05:30:27;;;;;;;3.03;2.00;;;25.20;66.60;;;;;;4956020;29;21266;-72
2022/07/26 05:32:53;;;;;;;3.90;2.13;;;25.20;66.90;;;;;;4955620;29;20453;-74
2022/07/26 05:35:20;;;;;;;2.57;1.67;;;25.20;66.80;;;;;;4955892;29;20477;-74
2022/07/26 05:37:46;;;;;;;4.10;2.47;;;25.20;66.80;;;;;;4939689;29;20454;-74
2022/07/26 05:40:12;;;;;;;3.10;2.13;;;25.20;66.90;;;;;;4956930;28;20459;-74
2022/07/26 05:42:38;;;;;;;4.20;1.90;;;25.20;66.80;;;;;;4956121;28;20458;-74
2022/07/26 05:45:07;;;;;;;3.20;1.97;;;25.10;66.80;;;;;;4956603;28;20510;-73
2022/07/26 05:47:33;;;;;;;5.20;2.70;;;25.20;67.00;;;;;;4955653;29;20422;-73
2022/07/26 05:49:59;;;;;;;3.13;2.00;;;25.20;67.10;;;;;;4956277;29;20974;-74
2022/07/26 05:52:25;;;;;;;3.67;1.87;;;25.10;67.20;;;;;;4955485;29;21012;-72
2022/07/26 05:54:54;;;;;;;6.43;2.30;;;25.10;67.40;;;;;;4940215;29;20852;-73
2022/07/26 05:57:23;;;;;;;3.83;1.80;;;25.10;67.40;;;;;;4939275;29;20429;-72
2022/07/26 05:59:49;;;;;;;5.60;2.50;;;25.00;67.40;;;;;;4955704;29;20435;-73
2022/07/26 06:02:20;;;;;;;3.10;2.00;;;25.10;67.40;;;;;;4956537;29;20457;-74
2022/07/26 06:04:48;;;;;;;4.03;2.03;;;25.10;67.50;;;;;;4956613;28;20415;-74
2022/07/26 06:07:14;;;;;;;4.87;2.30;;;25.00;67.60;;;;;;4955503;29;20411;-73
2022/07/26 06:09:41;;;;;;;6.60;2.17;;;25.00;67.70;;;;;;4956083;29;20811;-73
2022/07/26 06:12:07;;;;;;;3.70;1.80;;;25.00;67.80;;;;;;4956252;28;20414;-73
2022/07/26 06:14:36;;;;;;;4.10;1.73;;;25.00;67.70;;;;;;4955666;29;20407;-74
2022/07/26 06:17:03;;;;;;;5.43;2.23;;;25.00;67.60;;;;;;4955101;29;20434;-73
2022/07/26 06:19:29;;;;;;;5.97;2.63;;;25.00;67.80;;;;;;4955828;28;20494;-73
2022/07/26 06:21:55;;;;;;;5.20;2.50;;;25.00;67.90;;;;;;4954112;29;20455;-72
2022/07/26 06:24:24;;;;;;;3.47;2.00;;;25.00;67.90;;;;;;4953684;29;20573;-73
2022/07/26 06:26:52;;;;;;;5.00;2.90;;;25.00;67.60;;;;;;4954652;29;20427;-73
2022/07/26 06:29:18;;;;;;;2.30;1.70;;;25.00;67.70;;;;;;4954145;29;20430;-73
2022/07/26 06:31:44;;;;;;;4.23;2.20;;;25.00;68.30;;;;;;4954687;28;20493;-73
2022/07/26 06:34:12;;;;;;;5.73;2.10;;;24.90;68.20;;;;;;4971194;28;20821;-73
2022/07/26 06:36:38;;;;;;;6.57;2.20;;;24.90;68.10;;;;;;4954262;29;20497;-73
2022/07/26 06:39:06;;;;;;;4.40;2.27;;;24.90;68.00;;;;;;4935366;29;20434;-73
2022/07/26 06:41:36;;;;;;;4.80;2.43;;;24.90;68.20;;;;;;4939234;29;20444;-73
2022/07/26 06:44:05;;;;;;;4.07;2.10;;;24.90;68.50;;;;;;4954324;29;20986;-73
2022/07/26 06:46:36;;;;;;;3.93;2.43;;;24.90;68.20;;;;;;4954579;29;20873;-73
2022/07/26 06:49:09;;;;;;;4.57;2.53;;;24.90;68.00;;;;;;4955641;29;20434;-73
2022/07/26 06:51:35;;;;;;;6.17;2.57;;;24.90;68.00;;;;;;4954374;29;20486;-73
2022/07/26 06:54:06;;;;;;;4.40;2.30;;;24.90;67.90;;;;;;4938405;29;20467;-73
2022/07/26 06:56:37;;;;;;;3.13;2.23;;;24.90;68.10;;;;;;4934972;29;20435;-73
2022/07/26 06:59:07;;;;;;;2.63;2.27;;;24.90;68.50;;;;;;4919715;29;20947;-73
2022/07/26 07:01:45;;;;;;;4.50;2.37;;;24.90;68.40;;;;;;4954131;29;20627;-73
2022/07/26 07:04:11;;;;;;;3.20;2.10;;;24.90;68.50;;;;;;4938361;29;20451;-73
2022/07/26 07:06:37;;;;;;;3.73;2.27;;;24.90;68.80;;;;;;4955203;29;20425;-73
2022/07/26 07:09:03;;;;;;;6.13;2.80;;;24.90;68.80;;;;;;4954266;29;20450;-73
2022/07/26 07:11:29;;;;;;;5.43;2.33;;;24.90;68.50;;;;;;4953996;29;20495;-73
2022/07/26 07:13:55;;;;;;;3.43;2.00;;;24.90;68.50;;;;;;4955370;28;20475;-73
2022/07/26 07:16:21;;;;;;;6.53;2.40;;;24.90;68.50;;;;;;4955094;29;20514;-73
2022/07/26 07:18:47;;;;;;;4.37;2.80;;;24.90;68.50;;;;;;4937931;29;20856;-73
2022/07/26 07:21:14;;;;;;;3.67;1.90;;;24.90;68.60;;;;;;4918297;29;20559;-73
2022/07/26 07:23:40;;;;;;;5.77;3.30;;;24.90;68.70;;;;;;4948787;29;20506;-73
2022/07/26 07:26:10;;;;;;;5.97;2.80;;;24.90;68.60;;;;;;4938407;29;20769;-73
2022/07/26 07:28:41;;;;;;;5.50;2.50;;;24.80;68.70;;;;;;4953273;29;20435;-73
2022/07/26 07:31:15;;;;;;;5.00;2.70;;;24.90;69.30;;;;;;4947525;29;20790;-73
2022/07/26 07:33:43;;;;;;;4.00;2.30;;;24.80;69.30;;;;;;4947619;29;20422;-73
2022/07/26 07:36:12;;;;;;;7.07;2.50;;;24.90;69.30;;;;;;4953656;29;20442;-73
2022/07/26 07:38:38;;;;;;;5.43;2.70;;;24.80;69.30;;;;;;4936913;29;20426;-73
2022/07/26 07:41:08;;;;;;;6.90;2.63;;;24.80;69.50;;;;;;4952762;28;21049;-73
2022/07/26 07:43:39;;;;;;;4.70;2.47;;;24.80;69.60;;;;;;4936514;29;20545;-73
2022/07/26 07:46:05;;;;;;;7.07;3.30;;;24.80;69.80;;;;;;4965667;28;20510;-73
2022/07/26 07:48:32;;;;;;;4.20;2.30;;;24.80;69.60;;;;;;4953392;29;20421;-73
2022/07/26 07:51:00;;;;;;;3.53;2.40;;;24.80;69.40;;;;;;4954847;28;20455;-72
2022/07/26 07:53:49;;;;;;;3.67;2.20;;;24.80;69.20;;;;;;4948323;29;20445;-72
2022/07/26 07:56:17;;;;;;;4.17;2.40;;;24.80;69.20;;;;;;4937097;29;20419;-72
2022/07/26 07:58:45;;;;;;;5.70;2.83;;;24.80;69.50;;;;;;4952803;28;20532;-72
2022/07/26 08:01:11;;;;;;;7.17;3.20;;;24.80;69.50;;;;;;4937328;29;20462;-72
2022/07/26 08:03:40;;;;;;;4.53;2.57;;;24.80;69.90;;;;;;4937127;29;20473;-73
2022/07/26 08:06:08;;;;;;;5.70;2.47;;;24.80;69.70;;;;;;4937620;29;20400;-75
2022/07/26 08:08:37;;;;;;;5.17;2.53;;;24.80;69.60;;;;;;4953924;28;20419;-75
2022/07/26 08:11:07;;;;;;;3.30;2.20;;;24.80;69.40;;;;;;4954480;29;20841;-75
2022/07/26 08:13:36;;;;;;;5.90;2.67;;;24.80;69.60;;;;;;4949453;29;20423;-75
2022/07/26 08:16:02;;;;;;;3.97;2.40;;;24.80;69.50;;;;;;4949767;29;20415;-74
2022/07/26 08:18:28;;;;;;;3.93;2.83;;;24.80;69.70;;;;;;4967383;28;20876;-75
2022/07/26 08:20:56;;;;;;;3.80;2.50;;;24.80;69.50;;;;;;4953257;29;20567;-75
2022/07/26 08:23:25;;;;;;;4.10;2.20;;;24.80;69.50;;;;;;4951992;29;20692;-75
2022/07/26 08:25:53;;;;;;;10.27;2.97;;;24.80;69.60;;;;;;4953014;29;20423;-75
2022/07/26 08:28:19;;;;;;;4.70;2.40;;;24.80;69.50;;;;;;4936903;29;20503;-74
2022/07/26 08:30:47;;;;;;;6.20;3.07;;;24.90;69.50;;;;;;4933662;29;20440;-74
2022/07/26 08:33:17;;;;;;;4.40;2.70;;;24.80;69.40;;;;;;4942292;29;20424;-74
2022/07/26 08:35:43;;;;;;;4.60;2.67;;;24.90;69.60;;;;;;4965367;28;20475;-75
2022/07/26 08:38:11;;;;;;;4.40;2.60;;;24.80;69.60;;;;;;4949344;29;20428;-75
2022/07/26 08:40:40;;;;;;;3.03;2.50;;;24.90;69.70;;;;;;4959900;28;20541;-75
2022/07/26 08:43:12;;;;;;;3.37;2.17;;;24.80;69.40;;;;;;4933216;29;20463;-75
2022/07/26 08:45:39;;;;;;;4.30;2.50;;;24.80;69.40;;;;;;4935975;29;20904;-75
2022/07/26 08:48:05;;;;;;;5.23;2.83;;;24.90;69.40;;;;;;4951704;28;20560;-77
2022/07/26 08:50:34;;;;;;;5.00;2.97;;;24.90;69.40;;;;;;4950815;29;20827;-76
2022/07/26 08:53:02;;;;;;;3.80;2.30;;;24.90;69.40;;;;;;4952575;28;20419;-74
2022/07/26 08:55:29;;;;;;;4.60;2.30;;;24.90;69.30;;;;;;4971816;28;20805;-75
2022/07/26 08:58:01;;;;;;;6.20;2.87;;;24.90;69.30;;;;;;4957594;28;20949;-75
2022/07/26 09:00:29;;;;;;;4.00;3.00;;;24.90;69.30;;;;;;4972609;28;20443;-74
2022/07/26 09:02:56;;;;;;;3.13;2.67;;;24.90;69.20;;;;;;4924343;29;20554;-74
2022/07/26 09:05:33;;;;;;;2.80;2.17;;;24.90;69.20;;;;;;4956653;29;20755;-74
2022/07/26 09:08:20;;;;;;;4.03;2.70;;;24.90;69.20;;;;;;4957538;28;20423;-74
2022/07/26 09:10:48;;;;;;;2.90;2.60;;;24.90;69.00;;;;;;4972520;28;20442;-74
2022/07/26 09:13:22;;;;;;;4.07;3.00;;;24.90;69.00;;;;;;4952303;29;20432;-74
2022/07/26 09:15:48;;;;;;;3.43;2.50;;;24.90;68.80;;;;;;4943178;29;20462;-76
2022/07/26 09:18:28;;;;;;;8.40;3.20;;;25.00;69.00;;;;;;4957501;29;20483;-77
2022/07/26 09:20:56;;;;;;;3.07;2.87;;;25.00;69.00;;;;;;4956495;29;20562;-76
2022/07/26 09:23:22;;;;;;;4.77;3.13;;;25.00;69.00;;;;;;4969036;28;20459;-75
2022/07/26 09:25:48;;;;;;;4.30;3.10;;;25.00;69.00;;;;;;4942000;29;20426;-77
2022/07/26 09:28:24;;;;;;;5.07;3.53;;;25.00;68.90;;;;;;4956787;28;20594;-75
2022/07/26 09:30:55;;;;;;;3.40;3.10;;;25.00;68.80;;;;;;4983419;28;20443;-74
2022/07/26 09:33:22;;;;;;;3.40;3.10;;;25.00;68.80;;;;;;4930488;29;20952;-74
2022/07/26 09:36:08;;;;;;;3.30;2.60;;;25.00;68.80;;;;;;4956824;29;20460;-74
2022/07/26 09:38:42;;;;;;;5.83;3.67;;;25.10;68.80;;;;;;4955990;29;20498;-74
2022/07/26 09:41:20;;;;;;;3.20;2.90;;;25.00;68.80;;;;;;4955829;29;20894;-74
2022/07/26 09:43:46;;;;;;;4.17;3.60;;;25.10;68.90;;;;;;4936436;29;20555;-73
2022/07/26 09:46:15;;;;;;;3.40;3.10;;;25.10;68.90;;;;;;4944827;29;20437;-73
2022/07/26 09:48:42;;;;;;;4.23;3.43;;;25.10;69.00;;;;;;4939765;29;20419;-72
2022/07/26 09:51:09;;;;;;;4.90;2.77;;;25.10;69.20;;;;;;4955599;29;20987;-73
2022/07/26 09:53:45;;;;;;;4.67;3.10;;;25.10;69.20;;;;;;4968316;28;20468;-73
2022/07/26 09:56:13;;;;;;;4.30;3.40;;;25.10;69.20;;;;;;4939680;29;20450;-74
2022/07/26 09:58:45;;;;;;;3.57;3.23;;;25.10;69.30;;;;;;4955246;29;20501;-76
2022/07/26 10:01:14;;;;;;;3.37;3.07;;;25.10;69.40;;;;;;4970707;28;21006;-74
2022/07/26 10:03:44;;;;;;;3.50;3.10;;;25.10;69.50;;;;;;4951777;29;20850;-73
2022/07/26 10:06:10;;;;;;;4.27;3.43;;;25.10;69.60;;;;;;4970973;28;20943;-73
2022/07/26 10:08:36;;;;;;;4.03;3.37;;;25.10;69.70;;;;;;4939736;29;20465;-73
2022/07/26 10:11:08;;;;;;;3.93;3.00;;;25.10;69.70;;;;;;4956553;29;20210;-73
2022/07/26 10:13:38;;;;;;;4.00;3.60;;;25.10;69.80;;;;;;4936221;29;20439;-73
2022/07/26 10:16:05;;;;;;;3.60;3.30;;;25.10;70.00;;;;;;4952707;29;20530;-72
2022/07/26 10:18:37;;;;;;;4.93;4.00;;;25.20;70.30;;;;;;4949283;29;20492;-74
2022/07/26 10:21:28;;;;;;;5.53;3.30;;;25.20;70.30;;;;;;4954786;29;20537;-74
2022/07/26 10:24:02;;;;;;;3.60;3.27;;;25.20;70.30;;;;;;4954936;29;20498;-75
2022/07/26 10:26:31;;;;;;;4.70;3.53;;;25.20;70.10;;;;;;4939336;29;20486;-73
2022/07/26 10:29:19;;;;;;;4.00;3.10;;;25.20;70.20;;;;;;4877882;29;20474;-73
2022/07/26 10:31:59;;;;;;;4.50;3.20;;;25.20;70.20;;;;;;4878379;29;20454;-73
2022/07/26 10:34:45;;;;;;;5.07;3.47;;;25.20;71.00;;;;;;4951810;28;20523;-74
2022/07/26 10:37:23;;;;;;;5.50;3.57;;;25.30;70.10;;;;;;4955131;29;20435;-75
2022/07/26 10:40:16;;;;;;;3.20;2.90;;;25.30;69.90;;;;;;4935959;29;20810;-75
2022/07/26 10:42:45;;;;;;;3.37;3.17;;;25.30;69.80;;;;;;4954307;29;20462;-74
2022/07/26 10:45:22;;;;;;;3.57;3.27;;;25.30;69.70;;;;;;4967209;28;20474;-74
2022/07/26 10:48:14;;;;;;;3.47;2.90;;;25.30;69.60;;;;;;4954173;29;20731;-72
2022/07/26 10:50:47;;;;;;;3.33;3.03;;;25.30;69.70;;;;;;4954055;29;20583;-72
2022/07/26 10:53:26;;;;;;;3.77;3.07;;;25.30;69.60;;;;;;4938475;29;20435;-72
2022/07/26 10:55:57;;;;;;;3.60;3.30;;;25.30;69.60;;;;;;4936856;29;20435;-74
2022/07/26 10:58:26;;;;;;;4.33;2.90;;;25.30;69.50;;;;;;4957957;29;20450;-75
2022/07/26 11:01:03;;;;;;;3.47;2.90;;;25.30;69.50;;;;;;4955442;28;20443;-73
2022/07/26 11:03:40;;;;;;;3.17;2.80;;;25.30;70.20;;;;;;4953982;29;20451;-72
2022/07/26 11:06:15;;;;;;;3.50;2.93;;;25.30;69.40;;;;;;4954612;29;20640;-72
2022/07/26 11:08:46;;;;;;;3.63;3.10;;;25.30;69.30;;;;;;4953731;29;20435;-72
2022/07/26 11:11:12;;;;;;;2.67;2.47;;;25.30;69.40;;;;;;4954346;29;20435;-72
2022/07/26 11:13:43;;;;;;;4.43;3.03;;;25.30;70.30;;;;;;4955090;29;20522;-73
2022/07/26 11:16:09;;;;;;;2.67;2.47;;;25.30;69.60;;;;;;4955249;28;20928;-74
2022/07/26 11:18:37;;;;;;;2.40;2.20;;;25.30;69.50;;;;;;4953242;29;20430;-75
2022/07/26 11:21:16;;;;;;;2.40;2.20;;;25.30;69.50;;;;;;4944517;29;20456;-75
2022/07/26 11:23:44;;;;;;;2.57;2.37;;;25.30;69.60;;;;;;4953387;29;21070;-75
2022/07/26 11:26:13;;;;;;;2.60;2.40;;;25.30;69.70;;;;;;4970012;28;20491;-75
2022/07/26 11:28:52;;;;;;;2.60;2.10;;;25.30;69.70;;;;;;4953683;29;20436;-75
2022/07/26 11:31:34;;;;;;;2.60;2.40;;;25.30;69.70;;;;;;4955290;29;20800;-75
2022/07/26 11:34:01;;;;;;;2.87;2.40;;;25.30;69.60;;;;;;4970099;28;20458;-75
2022/07/26 11:36:35;;;;;;;2.90;1.90;;;25.30;69.50;;;;;;4969357;28;20460;-75
2022/07/26 11:39:02;;;;;;;2.57;2.30;;;25.30;69.60;;;;;;4954617;29;20883;-76
2022/07/26 11:41:30;;;;;;;1.93;1.83;;;25.30;69.50;;;;;;4953378;29;20473;-75
2022/07/26 11:44:03;;;;;;;4.10;1.70;;;25.40;69.50;;;;;;4954709;28;20459;-76
2022/07/26 11:46:46;;;;;;;2.23;1.70;;;25.30;69.40;;;;;;4953858;29;20786;-75
2022/07/26 11:49:19;;;;;;;2.07;1.87;;;25.40;69.70;;;;;;4954563;28;20767;-75
2022/07/26 11:51:58;;;;;;;2.10;1.80;;;25.40;69.70;;;;;;4938299;29;20816;-76
2022/07/26 11:54:31;;;;;;;2.33;1.70;;;25.40;69.80;;;;;;4955286;28;20427;-78
2022/07/26 11:56:57;;;;;;;1.97;1.77;;;25.40;69.70;;;;;;4970592;28;20836;-77
2022/07/26 11:59:26;;;;;;;1.63;1.53;;;25.40;69.80;;;;;;4955413;29;20427;-78
2022/07/26 12:01:53;;;;;;;1.73;1.63;;;25.40;69.90;;;;;;4957128;28;20863;-79
2022/07/26 12:04:20;;;;;;;1.90;1.80;;;25.40;69.90;;;;;;4939159;29;20546;-77
2022/07/26 12:06:54;;;;;;;1.70;1.60;;;25.50;69.90;;;;;;4954645;29;20427;-78
2022/07/26 12:09:35;;;;;;;1.80;1.70;;;25.50;69.70;;;;;;4955313;29;20431;-78
2022/07/26 12:12:07;;;;;;;1.53;1.40;;;25.50;69.60;;;;;;4957008;29;20542;-78
2022/07/26 12:14:38;;;;;;;1.73;1.50;;;25.50;69.50;;;;;;4939176;29;20477;-76
2022/07/26 12:17:16;;;;;;;1.53;1.43;;;25.50;69.60;;;;;;4956380;29;20427;-77
2022/07/26 12:19:43;;;;;;;1.90;1.37;;;25.50;69.50;;;;;;4957065;28;20458;-78
2022/07/26 12:22:14;;;;;;;1.33;1.23;;;25.60;69.60;;;;;;4967901;28;20538;-78
2022/07/26 12:24:56;;;;;;;1.67;1.57;;;25.60;69.50;;;;;;4962382;28;20463;-78
2022/07/26 12:27:28;;;;;;;1.67;1.57;;;25.60;69.40;;;;;;4940039;29;20455;-78
2022/07/26 12:30:04;;;;;;;1.23;1.13;;;25.60;69.20;;;;;;4920047;29;20466;-78
2022/07/26 12:32:35;;;;;;;1.23;1.13;;;25.60;69.20;;;;;;4923005;29;20428;-78
2022/07/26 12:35:05;;;;;;;1.20;1.10;;;25.60;69.20;;;;;;4934414;29;20482;-78
2022/07/26 12:37:36;;;;;;;1.43;1.33;;;25.60;69.20;;;;;;4956623;29;20510;-77
2022/07/26 12:40:10;;;;;;;1.67;1.50;;;25.60;68.90;;;;;;4955045;29;20554;-78
2022/07/26 12:42:39;;;;;;;2.40;1.43;;;25.60;68.80;;;;;;4939490;29;20474;-78
2022/07/26 12:45:11;;;;;;;1.70;1.60;;;25.70;69.40;;;;;;4971470;28;20944;-78
2022/07/26 12:47:45;;;;;;;1.60;1.50;;;25.70;68.90;;;;;;4954726;29;20556;-77
2022/07/26 12:50:15;;;;;;;1.30;1.20;;;25.70;68.80;;;;;;4967632;28;20484;-78
2022/07/26 12:55:20;;;;;;;1.53;1.30;;;25.70;68.70;;;;;;4954166;29;20462;-95
2022/07/26 12:57:50;;;;;;;1.53;1.40;;;25.70;68.80;;;;;;4963308;28;20434;-94
2022/07/26 13:00:28;;;;;;;;;;;;;;;;;;;;;
2022/07/26 13:02:57;;;;;;;1.23;1.13;;;25.80;68.60;;;;;;4955126;28;20546;-95